createdAt,value
2018-01-30T00:01:06.194Z,5.00
2018-01-30T00:02:43.494Z,5.50
2018-01-30T00:04:22.651Z,5.00
2018-01-30T00:06:00.218Z,4.75
2018-01-30T00:07:37.543Z,5.75
2018-01-30T00:09:14.362Z,4.00
2018-01-30T06:31:07.516Z,31.50
2018-01-30T06:32:43.959Z,29.75
2018-01-30T06:34:21.068Z,36.25
2018-01-30T06:35:57.853Z,32.75
2018-01-30T06:37:35.017Z,52.50
2018-01-30T06:39:11.409Z,29.25
2018-01-30T06:40:47.967Z,30.50
2018-01-30T06:42:25.579Z,53.75
2018-01-30T06:44:02.028Z,29.00
2018-01-30T06:45:38.502Z,38.50
2018-01-30T06:47:15.725Z,32.25
2018-01-30T06:48:53.004Z,34.50
2018-01-30T06:50:29.602Z,29.25
2018-01-30T06:52:06.095Z,26.50
2018-01-30T06:53:42.501Z,38.25
2018-01-30T06:55:18.942Z,31.50
2018-01-30T06:56:56.953Z,62.75
2018-01-30T06:58:33.528Z,52.75
2018-01-30T07:00:10.147Z,43.25
2018-01-30T07:01:46.827Z,50.00
2018-01-30T07:03:23.330Z,34.50
2018-01-30T07:04:59.643Z,41.75
2018-01-30T07:06:36.094Z,36.50
2018-01-30T07:08:12.917Z,36.50
2018-01-30T07:09:50.103Z,48.25
2018-01-30T07:11:27.478Z,82.25
2018-01-30T07:13:04.267Z,40.50
2018-01-30T07:14:41.790Z,52.50
2018-01-30T07:16:18.259Z,50.50
2018-01-30T07:17:55.412Z,49.75
2018-01-30T07:19:31.856Z,43.50
2018-01-30T07:21:08.527Z,37.50
2018-01-30T07:22:44.913Z,45.50
2018-01-30T07:24:21.360Z,31.50
2018-01-30T07:25:58.974Z,33.25
2018-01-30T07:27:36.641Z,47.75
2018-01-30T07:29:13.408Z,47.00
2018-01-30T07:30:50.807Z,42.25
2018-01-30T07:32:27.254Z,38.25
2018-01-30T07:34:04.122Z,34.75
2018-01-30T07:35:40.602Z,35.00
2018-01-30T07:37:17.133Z,31.75
2018-01-30T07:38:53.525Z,38.75
2018-01-30T07:40:30.004Z,40.00
2018-01-30T07:42:06.437Z,45.75
2018-01-30T07:43:43.054Z,34.50
2018-01-30T07:45:19.554Z,35.50
2018-01-30T07:46:56.239Z,37.75
2018-01-30T07:48:32.770Z,39.75
2018-01-30T07:50:09.298Z,44.25
2018-01-30T07:51:46.186Z,28.50
2018-01-30T07:53:23.012Z,36.75
2018-01-30T07:55:00.161Z,31.00
2018-01-30T07:56:37.049Z,33.00
2018-01-30T07:58:13.461Z,28.00
2018-01-30T07:59:51.291Z,35.25
2018-01-30T08:01:27.738Z,31.75
2018-01-30T08:03:04.876Z,36.25
2018-01-30T08:04:42.053Z,42.50
2018-01-30T08:06:18.939Z,33.00
2018-01-30T08:07:58.931Z,38.75
2018-01-30T08:09:35.424Z,41.25
2018-01-30T08:11:12.174Z,36.00
2018-01-30T08:12:49.962Z,39.50
2018-01-30T08:14:26.309Z,40.75
2018-01-30T08:16:03.706Z,41.00
2018-01-30T08:17:40.214Z,45.25
2018-01-30T08:19:16.951Z,35.00
2018-01-30T08:20:53.520Z,40.75
2018-01-30T08:22:30.805Z,37.00
2018-01-30T08:24:07.494Z,41.75
2018-01-30T08:25:44.767Z,37.00
2018-01-30T08:27:21.264Z,50.00
2018-01-30T08:28:58.397Z,41.25
2018-01-30T08:30:34.744Z,38.75
2018-01-30T08:32:11.452Z,41.75
2018-01-30T08:33:47.949Z,39.25
2018-01-30T08:35:25.849Z,37.00
2018-01-30T08:37:03.051Z,45.25
2018-01-30T08:38:40.843Z,34.25
2018-01-30T08:40:17.458Z,39.00
2018-01-30T08:41:53.845Z,36.25
2018-01-30T08:43:30.286Z,42.00
2018-01-30T08:45:08.077Z,41.00
2018-01-30T08:46:45.220Z,41.25
2018-01-30T08:48:21.683Z,43.50
2018-01-30T08:49:58.080Z,40.50
2018-01-30T08:51:34.730Z,43.00
2018-01-30T08:53:11.194Z,42.50
2018-01-30T08:54:47.494Z,40.25
2018-01-30T08:56:23.967Z,36.50
2018-01-30T08:58:01.607Z,43.75
2018-01-30T08:59:38.356Z,44.50
2018-01-30T09:01:14.823Z,41.50
2018-01-30T09:02:51.110Z,45.50
2018-01-30T09:04:27.840Z,40.75
2018-01-30T09:06:05.191Z,44.25
2018-01-30T09:07:41.643Z,39.75
2018-01-30T09:09:18.092Z,42.50
2018-01-30T09:10:54.912Z,51.25
2018-01-30T09:12:31.816Z,49.50
2018-01-30T09:14:08.289Z,48.50
2018-01-30T09:15:45.341Z,46.00
2018-01-30T09:17:22.843Z,50.75
2018-01-30T09:18:59.311Z,46.50
2018-01-30T09:20:35.857Z,54.25
2018-01-30T09:22:12.335Z,48.00
2018-01-30T09:23:48.963Z,46.25
2018-01-30T09:25:26.190Z,52.50
2018-01-30T09:27:02.603Z,45.00
2018-01-30T09:28:39.845Z,47.25
2018-01-30T09:30:17.865Z,38.50
2018-01-30T09:31:54.250Z,53.50
2018-01-30T09:33:31.510Z,45.50
2018-01-30T09:35:07.906Z,47.75
2018-01-30T09:36:44.924Z,57.50
2018-01-30T09:38:21.581Z,45.75
2018-01-30T09:39:58.105Z,51.00
2018-01-30T09:41:34.555Z,57.25
2018-01-30T09:43:11.374Z,54.50
2018-01-30T09:44:47.892Z,49.50
2018-01-30T09:46:24.347Z,61.00
2018-01-30T09:48:00.802Z,50.50
2018-01-30T09:49:37.603Z,46.50
2018-01-30T09:51:13.982Z,46.75
2018-01-30T09:52:51.291Z,45.50
2018-01-30T09:54:27.988Z,48.00
2018-01-30T09:56:04.874Z,54.00
2018-01-30T09:57:41.719Z,54.25
2018-01-30T09:59:18.892Z,42.75
2018-01-30T10:00:55.491Z,54.75
2018-01-30T10:02:32.356Z,56.25
2018-01-30T10:04:09.527Z,43.00
2018-01-30T10:05:46.320Z,47.25
2018-01-30T10:07:22.735Z,57.25
2018-01-30T10:08:59.380Z,60.50
2018-01-30T10:10:35.723Z,51.00
2018-01-30T10:12:12.349Z,45.75
2018-01-30T10:13:48.804Z,52.25
2018-01-30T10:15:25.783Z,57.50
2018-01-30T10:17:03.108Z,52.75
2018-01-30T10:18:39.619Z,55.00
2018-01-30T10:20:16.561Z,50.75
2018-01-30T10:21:53.007Z,48.50
2018-01-30T10:23:29.365Z,43.75
2018-01-30T10:25:05.932Z,59.00
2018-01-30T10:26:42.382Z,50.50
2018-01-30T10:28:19.451Z,47.75
2018-01-30T10:29:55.812Z,47.25
2018-01-30T10:31:33.545Z,55.25
2018-01-30T10:33:09.940Z,46.75
2018-01-30T10:34:47.572Z,47.75
2018-01-30T10:36:24.012Z,53.00
2018-01-30T10:38:00.520Z,49.75
2018-01-30T10:39:37.871Z,54.75
2018-01-30T10:41:15.036Z,43.75
2018-01-30T10:42:51.642Z,40.50
2018-01-30T10:44:28.146Z,53.75
2018-01-30T10:46:04.550Z,54.00
2018-01-30T10:47:42.402Z,45.25
2018-01-30T10:49:19.784Z,43.25
2018-01-30T10:50:57.206Z,46.25
2018-01-30T10:52:37.370Z,37.00
2018-01-30T10:54:14.497Z,45.75
2018-01-30T10:55:51.705Z,45.75
2018-01-30T10:57:29.105Z,37.00
2018-01-30T10:59:05.786Z,42.00
2018-01-30T11:00:42.999Z,41.50
2018-01-30T11:02:19.343Z,37.00
2018-01-30T11:03:56.639Z,38.25
2018-01-30T11:07:29.497Z,39.25
2018-01-30T11:09:06.861Z,39.00
2018-01-30T11:10:44.424Z,35.00
2018-01-30T11:12:22.161Z,36.75
2018-01-30T11:13:58.598Z,32.75
2018-01-30T11:15:36.770Z,34.50
2018-01-30T11:17:14.336Z,30.25
2018-01-30T11:18:51.172Z,36.25
2018-01-30T11:20:28.447Z,39.25
2018-01-30T11:22:04.901Z,37.00
2018-01-30T11:23:41.347Z,33.75
2018-01-30T11:25:18.370Z,39.50
2018-01-30T11:26:54.834Z,32.50
2018-01-30T11:28:31.352Z,41.75
2018-01-30T11:30:09.401Z,42.00
2018-01-30T11:31:47.326Z,45.00
2018-01-30T11:33:23.923Z,46.25
2018-01-30T11:35:00.536Z,36.00
2018-01-30T11:36:37.161Z,33.75
2018-01-30T11:38:14.985Z,29.00
2018-01-30T11:39:52.271Z,39.25
2018-01-30T11:41:29.927Z,34.75
2018-01-30T11:43:07.117Z,39.25
2018-01-30T11:44:44.068Z,42.25
2018-01-30T11:46:20.477Z,37.75
2018-01-30T11:47:57.184Z,41.50
2018-01-30T11:49:35.505Z,34.75
2018-01-30T11:51:12.029Z,35.00
2018-01-30T11:52:49.549Z,30.00
2018-01-30T11:57:39.132Z,41.00
2018-01-30T11:59:15.811Z,29.75
2018-01-30T12:00:53.139Z,39.50
2018-01-30T12:02:29.610Z,38.75
2018-01-30T12:04:08.324Z,28.25
2018-01-30T12:05:44.985Z,34.50
2018-01-30T12:07:22.700Z,33.50
2018-01-30T12:08:59.232Z,33.00
2018-01-30T12:10:35.961Z,28.25
2018-01-30T12:12:12.559Z,33.50
2018-01-30T12:13:49.147Z,24.00
2018-01-30T12:15:26.015Z,34.25
2018-01-30T12:17:02.675Z,27.50
2018-01-30T12:18:40.367Z,35.00
2018-01-30T12:20:19.935Z,30.50
2018-01-30T12:21:56.436Z,31.00
2018-01-30T12:23:34.888Z,27.50
2018-01-30T12:25:11.528Z,34.50
2018-01-30T12:26:48.041Z,26.00
2018-01-30T12:28:24.544Z,27.25
2018-01-30T12:30:05.904Z,30.50
2018-01-30T12:31:42.546Z,36.00
2018-01-30T12:33:19.554Z,29.25
2018-01-30T12:34:56.839Z,33.50
2018-01-30T12:36:33.397Z,25.00
2018-01-30T12:38:10.366Z,22.50
2018-01-30T12:39:46.913Z,24.75
2018-01-30T12:41:23.403Z,27.00
2018-01-30T12:43:00.260Z,26.25
2018-01-30T12:44:36.744Z,30.50
2018-01-30T12:46:13.247Z,29.50
2018-01-30T12:47:49.746Z,27.75
2018-01-30T12:49:26.842Z,30.75
2018-01-30T12:51:04.271Z,24.00
2018-01-30T12:52:40.952Z,26.50
2018-01-30T12:54:17.560Z,28.50
2018-01-30T12:55:54.394Z,22.50
2018-01-30T12:57:31.139Z,22.00
2018-01-30T12:59:08.411Z,25.25
2018-01-30T13:00:46.359Z,22.75
2018-01-30T13:02:23.104Z,29.50
2018-01-30T13:03:59.638Z,33.50
2018-01-30T13:05:36.202Z,31.25
2018-01-30T13:07:13.077Z,29.75
2018-01-30T13:08:50.566Z,33.75
2018-01-30T13:10:27.047Z,31.50
2018-01-30T13:12:03.890Z,27.00
2018-01-30T13:13:40.290Z,33.50
2018-01-30T13:15:17.699Z,20.25
2018-01-30T13:16:54.919Z,22.75
2018-01-30T13:18:31.425Z,26.00
2018-01-30T13:20:07.917Z,26.00
2018-01-30T13:21:46.661Z,36.25
2018-01-30T13:23:25.028Z,26.25
2018-01-30T13:25:01.574Z,27.00
2018-01-30T13:26:38.173Z,27.50
2018-01-30T13:28:15.186Z,29.00
2018-01-30T13:29:52.433Z,35.00
2018-01-30T13:31:28.829Z,34.50
2018-01-30T13:33:05.963Z,32.00
2018-01-30T13:34:42.893Z,26.25
2018-01-30T13:36:19.628Z,37.50
2018-01-30T13:37:56.295Z,37.75
2018-01-30T13:39:33.457Z,38.75
2018-01-30T13:41:10.120Z,29.00
2018-01-30T13:42:46.724Z,32.50
2018-01-30T13:44:23.148Z,32.25
2018-01-30T13:45:59.785Z,29.75
2018-01-30T13:47:36.828Z,24.25
2018-01-30T13:49:13.445Z,30.50
2018-01-30T13:50:50.050Z,35.00
2018-01-30T13:52:27.420Z,26.00
2018-01-30T13:54:04.318Z,37.75
2018-01-30T13:55:41.516Z,30.50
2018-01-30T13:57:18.909Z,33.00
2018-01-30T13:58:55.474Z,35.75
2018-01-30T14:00:32.489Z,33.75
2018-01-30T14:02:09.035Z,37.00
2018-01-30T14:03:46.373Z,26.75
2018-01-30T14:05:23.821Z,31.00
2018-01-30T14:07:00.711Z,33.00
2018-01-30T14:08:40.035Z,28.25
2018-01-30T14:10:16.914Z,33.25
2018-01-30T14:11:53.810Z,31.25
2018-01-30T14:13:32.269Z,36.25
2018-01-30T14:15:09.588Z,26.00
2018-01-30T14:16:47.117Z,38.00
2018-01-30T14:18:25.368Z,35.25
2018-01-30T14:20:02.617Z,36.25
2018-01-30T14:21:39.230Z,35.25
2018-01-30T14:23:15.906Z,31.00
2018-01-30T14:24:53.569Z,33.00
2018-01-30T14:26:30.488Z,27.75
2018-01-30T14:28:07.116Z,37.75
2018-01-30T14:29:43.858Z,27.00
2018-01-30T14:31:22.531Z,32.25
2018-01-30T14:32:59.717Z,29.75
2018-01-30T14:34:38.777Z,34.50
2018-01-30T14:36:17.934Z,44.00
2018-01-30T14:37:54.594Z,31.50
2018-01-30T14:39:33.623Z,34.25
2018-01-30T14:41:10.123Z,31.00
2018-01-30T14:42:48.088Z,35.75
2018-01-30T14:44:24.658Z,43.75
2018-01-30T14:46:13.110Z,32.50
2018-01-30T14:47:50.733Z,33.25
2018-01-30T14:49:29.081Z,35.75
2018-01-30T14:51:06.649Z,26.75
2018-01-30T14:52:43.750Z,43.25
2018-01-30T14:54:22.519Z,32.75
2018-01-30T14:56:00.735Z,37.50
2018-01-30T14:57:37.511Z,31.00
2018-01-30T14:59:16.459Z,32.50
2018-01-30T15:00:54.885Z,36.50
2018-01-30T15:02:31.589Z,28.50
2018-01-30T15:04:08.299Z,36.00
2018-01-30T15:05:47.345Z,28.75
2018-01-30T15:07:24.539Z,33.50
2018-01-30T15:09:01.979Z,29.50
2018-01-30T15:10:38.655Z,32.00
2018-01-30T15:12:16.673Z,31.50
2018-01-30T15:13:53.340Z,33.00
2018-01-30T15:15:30.653Z,34.25
2018-01-30T15:17:07.884Z,36.25
2018-01-30T15:18:47.694Z,28.25
2018-01-30T15:20:25.608Z,38.00
2018-01-30T15:22:04.374Z,26.50
2018-01-30T15:23:53.098Z,30.00
2018-01-30T15:25:36.096Z,27.75
2018-01-30T15:27:15.881Z,28.75
2018-01-30T15:28:54.294Z,27.00
2018-01-30T15:30:31.631Z,33.00
2018-01-30T15:32:09.764Z,30.50
2018-01-30T15:33:48.292Z,32.25
2018-01-30T15:35:28.567Z,35.25
2018-01-30T15:37:08.543Z,31.75
2018-01-30T15:38:48.342Z,35.00
2018-01-30T15:40:25.216Z,36.25
2018-01-30T15:42:02.292Z,27.00
2018-01-30T15:43:39.589Z,29.50
2018-01-30T15:45:18.822Z,33.00
2018-01-30T15:46:56.010Z,35.25
2018-01-30T15:48:34.561Z,30.25
2018-01-30T15:50:11.460Z,29.75
2018-01-30T15:51:51.393Z,28.50
2018-01-30T15:53:28.723Z,22.50
2018-01-30T15:55:05.861Z,36.25
2018-01-30T15:56:44.005Z,35.00
2018-01-30T15:58:21.283Z,36.00
2018-01-30T15:59:57.976Z,33.25
2018-01-30T16:01:35.028Z,29.50
2018-01-30T16:03:13.796Z,32.00
2018-01-30T16:04:52.596Z,33.75
2018-01-30T16:06:30.132Z,30.75
2018-01-30T16:08:08.108Z,28.75
2018-01-30T16:09:45.231Z,34.25
2018-01-30T16:11:23.654Z,38.50
2018-01-30T16:13:00.911Z,40.75
2018-01-30T16:14:39.552Z,37.75
2018-01-30T16:16:16.791Z,31.00
2018-01-30T16:17:56.571Z,41.50
2018-01-30T16:19:34.069Z,35.75
2018-01-30T16:21:12.247Z,40.25
2018-01-30T16:22:59.105Z,39.50
2018-01-30T16:24:36.215Z,45.25
2018-01-30T16:26:12.767Z,44.75
2018-01-30T16:27:50.660Z,45.50
2018-01-30T16:29:27.534Z,36.50
2018-01-30T16:31:05.923Z,39.75
2018-01-30T16:32:43.455Z,65.25
2018-01-30T16:34:20.688Z,69.25
2018-01-30T16:35:57.339Z,36.75
2018-01-30T16:37:36.912Z,43.00
2018-01-30T16:39:13.624Z,48.75
2018-01-30T16:40:51.850Z,38.00
2018-01-30T16:42:29.228Z,40.50
2018-01-30T16:44:05.726Z,33.25
2018-01-30T16:45:44.802Z,34.00
2018-01-30T16:47:22.139Z,38.25
2018-01-30T16:48:58.612Z,36.50
2018-01-30T16:50:35.428Z,35.25
2018-01-30T16:52:12.426Z,42.75
2018-01-30T16:53:48.917Z,50.75
2018-01-30T16:55:25.638Z,45.00
2018-01-30T16:57:05.688Z,45.50
2018-01-30T16:58:42.185Z,43.75
2018-01-30T17:00:20.156Z,53.50
2018-01-30T17:01:56.833Z,46.25
2018-01-30T17:03:33.934Z,38.00
2018-01-30T17:05:10.554Z,46.50
2018-01-30T17:06:47.575Z,44.25
2018-01-30T17:08:24.128Z,43.25
2018-01-30T17:10:01.108Z,45.75
2018-01-30T17:11:37.721Z,48.75
2018-01-30T17:13:14.254Z,47.25
2018-01-30T17:14:51.710Z,45.75
2018-01-30T17:16:28.556Z,42.75
2018-01-30T17:18:05.170Z,46.50
2018-01-30T17:19:42.282Z,40.50
2018-01-30T17:21:18.668Z,45.00
2018-01-30T17:22:55.492Z,40.50
2018-01-30T17:24:32.034Z,39.00
2018-01-30T17:26:08.598Z,44.00
2018-01-30T17:27:45.014Z,55.50
2018-01-30T17:29:21.654Z,54.00
2018-01-30T17:30:58.022Z,50.75
2018-01-30T17:32:35.297Z,52.50
2018-01-30T17:34:11.969Z,53.50
2018-01-30T17:35:50.433Z,47.00
2018-01-30T17:37:26.881Z,54.50
2018-01-30T17:39:03.586Z,61.25
2018-01-30T17:40:40.233Z,53.50
2018-01-30T17:42:18.609Z,54.75
2018-01-30T17:43:55.164Z,53.25
2018-01-30T17:45:31.806Z,57.00
2018-01-30T17:47:09.299Z,53.00
2018-01-30T17:48:46.374Z,52.50
2018-01-30T17:50:23.144Z,44.25
2018-01-30T17:51:59.644Z,49.00
2018-01-30T17:53:36.104Z,43.75
2018-01-30T17:55:13.293Z,47.25
2018-01-30T17:56:50.557Z,46.00
2018-01-30T17:58:27.310Z,41.25
2018-01-30T18:00:06.505Z,47.75
2018-01-30T18:01:43.295Z,46.25
2018-01-30T18:03:20.712Z,41.75
2018-01-30T18:04:58.465Z,48.25
2018-01-30T18:06:35.311Z,48.75
2018-01-30T18:08:12.094Z,53.75
2018-01-30T18:09:48.667Z,45.50
2018-01-30T18:11:25.679Z,48.00
2018-01-30T18:13:03.007Z,49.00
2018-01-30T18:14:39.954Z,51.75
2018-01-30T18:16:16.664Z,48.25
2018-01-30T18:17:53.318Z,49.00
2018-01-30T18:19:29.895Z,43.75
2018-01-30T18:21:07.028Z,43.50
2018-01-30T18:22:43.733Z,35.25
2018-01-30T18:24:22.982Z,41.75
2018-01-30T18:25:59.599Z,35.50
2018-01-30T18:27:36.488Z,41.00
2018-01-30T18:29:13.026Z,39.75
2018-01-30T18:30:50.303Z,41.25
2018-01-30T18:32:27.277Z,41.00
2018-01-30T18:34:04.095Z,38.50
2018-01-30T18:35:41.621Z,37.00
2018-01-30T18:37:18.347Z,40.00
2018-01-30T18:38:55.088Z,38.25
2018-01-30T18:40:33.474Z,39.00
2018-01-30T18:42:10.928Z,36.50
2018-01-30T18:43:47.609Z,37.00
2018-01-30T18:45:24.390Z,34.75
2018-01-30T18:47:01.536Z,38.75
2018-01-30T18:48:39.106Z,41.00
2018-01-30T18:50:15.592Z,36.25
2018-01-30T18:51:54.513Z,35.50
2018-01-30T18:53:36.006Z,36.00
2018-01-30T18:55:18.457Z,33.50
2018-01-30T18:56:56.150Z,49.25
2018-01-30T18:58:32.779Z,37.25
2018-01-30T19:00:10.259Z,36.75
2018-01-30T19:01:46.830Z,35.00
2018-01-30T19:03:24.003Z,28.00
2018-01-30T19:05:01.917Z,29.00
2018-01-30T19:06:40.376Z,32.50
2018-01-30T19:08:17.710Z,23.75
2018-01-30T19:09:55.488Z,33.75
2018-01-30T19:11:32.378Z,34.75
2018-01-30T19:13:10.050Z,32.25
2018-01-30T19:14:49.943Z,30.25
2018-01-30T19:16:27.748Z,27.00
2018-01-30T19:18:07.169Z,24.50
2018-01-30T19:19:44.630Z,31.00
2018-01-30T19:21:25.442Z,34.50
2018-01-30T19:23:02.360Z,29.75
2018-01-30T19:24:40.579Z,22.25
2018-01-30T19:26:18.219Z,36.25
2018-01-30T19:27:55.441Z,24.25
2018-01-30T19:29:33.369Z,35.00
2018-01-30T19:31:10.732Z,39.50
2018-01-30T19:32:47.891Z,32.50
2018-01-30T19:34:29.986Z,31.00
2018-01-30T19:36:08.389Z,34.00
2018-01-30T19:37:47.337Z,32.00
2018-01-30T19:39:24.411Z,34.50
2018-01-30T19:41:01.088Z,34.75
2018-01-30T19:42:37.992Z,33.50
2018-01-30T19:44:14.682Z,31.00
2018-01-30T19:45:53.380Z,35.75
2018-01-30T19:47:30.742Z,27.75
2018-01-30T19:49:07.208Z,39.75
2018-01-30T19:50:43.888Z,33.50
2018-01-30T19:52:20.424Z,35.25
2018-01-30T19:54:03.924Z,27.00
2018-01-30T19:55:44.492Z,54.75
2018-01-30T19:57:21.386Z,47.75
2018-01-30T19:59:00.642Z,35.75
2018-01-30T20:00:37.338Z,42.00
2018-01-30T20:02:13.872Z,33.75
2018-01-30T20:03:50.944Z,33.25
2018-01-30T20:05:28.288Z,30.50
2018-01-30T20:07:05.937Z,29.50
2018-01-30T20:08:42.692Z,18.50
2018-01-30T20:10:19.504Z,28.25
2018-01-30T20:11:56.092Z,33.25
2018-01-30T20:13:32.676Z,28.50
2018-01-30T20:15:09.207Z,31.50
2018-01-30T20:16:46.210Z,40.75
2018-01-30T20:18:23.724Z,25.75
2018-01-30T20:20:00.519Z,33.75
2018-01-30T20:21:37.226Z,35.25
2018-01-30T20:23:14.982Z,35.75
2018-01-30T20:24:52.396Z,32.50
2018-01-30T20:26:34.115Z,31.50
2018-01-30T20:28:11.826Z,25.75
2018-01-30T20:29:48.473Z,32.00
2018-01-30T20:31:26.211Z,25.00
2018-01-30T20:33:02.748Z,30.50
2018-01-30T20:34:39.448Z,38.00
2018-01-30T20:36:16.324Z,33.00
2018-01-30T20:37:54.256Z,23.25
2018-01-30T20:39:31.251Z,32.00
2018-01-30T20:41:08.746Z,35.00
2018-01-30T20:42:46.390Z,31.00
2018-01-30T20:44:23.100Z,41.00
2018-01-30T20:45:59.862Z,28.75
2018-01-30T20:47:38.105Z,30.75
2018-01-30T20:49:16.521Z,31.50
2018-01-30T20:50:54.630Z,29.75
2018-01-30T20:52:32.093Z,38.00
2018-01-30T20:54:08.623Z,30.50
2018-01-30T20:55:45.590Z,30.75
2018-01-30T20:57:22.155Z,28.50
2018-01-30T20:58:59.556Z,36.25
2018-01-30T21:00:37.787Z,29.50
2018-01-30T21:02:14.970Z,29.75
2018-01-30T21:03:51.985Z,40.25
2018-01-30T21:05:28.889Z,34.25
2018-01-30T21:07:05.416Z,36.50
2018-01-30T21:08:42.598Z,27.75
2018-01-30T21:10:20.224Z,36.75
2018-01-30T21:11:56.677Z,34.50
2018-01-30T21:13:33.714Z,36.75
2018-01-30T21:15:12.878Z,37.00
2018-01-30T21:16:54.536Z,36.50
2018-01-30T21:18:31.333Z,37.25
2018-01-30T21:20:13.641Z,39.25
2018-01-30T21:21:51.682Z,35.75
2018-01-30T21:25:19.003Z,43.00
2018-01-30T21:26:56.897Z,48.75
2018-01-30T21:28:33.676Z,40.50
2018-01-30T21:30:10.097Z,41.00
2018-01-30T21:31:46.790Z,39.25
2018-01-30T21:33:23.806Z,37.75
2018-01-30T21:35:00.296Z,30.50
2018-01-30T21:36:37.185Z,30.50
2018-01-30T21:38:14.550Z,28.50
2018-01-30T21:39:51.825Z,30.50
2018-01-30T21:41:28.325Z,31.75
2018-01-30T21:43:05.562Z,25.00
2018-01-30T21:44:43.184Z,33.00
2018-01-30T21:46:20.908Z,23.25
2018-01-30T21:47:57.400Z,34.00
2018-01-30T21:49:34.250Z,28.00
2018-01-30T21:51:10.795Z,33.25
2018-01-30T21:52:48.683Z,27.75
2018-01-30T21:54:25.519Z,29.75
2018-01-30T21:56:03.630Z,26.75
2018-01-30T21:57:40.500Z,26.25
2018-01-30T21:59:16.938Z,23.25
2018-01-30T22:00:53.773Z,29.25
2018-01-30T22:02:30.191Z,29.75
2018-01-30T22:04:07.261Z,24.00
2018-01-30T22:05:44.848Z,28.75
2018-01-30T22:07:21.562Z,31.50
2018-01-30T22:08:58.586Z,23.00
2018-01-30T22:10:36.169Z,28.00
2018-01-30T22:12:13.444Z,33.50
2018-01-30T22:13:49.916Z,27.50
2018-01-30T22:15:28.628Z,24.75
2018-01-30T22:17:06.876Z,30.00
2018-01-30T22:18:43.433Z,38.50
2018-01-30T22:20:19.919Z,38.75
2018-01-30T22:21:56.270Z,44.25
2018-01-30T22:23:33.075Z,43.00
2018-01-30T22:25:09.680Z,39.75
2018-01-30T22:26:46.998Z,34.50
2018-01-30T22:28:24.101Z,38.75
2018-01-30T22:30:03.666Z,24.00
2018-01-30T22:31:40.376Z,32.75
2018-01-30T22:33:16.880Z,40.00
2018-01-30T22:34:53.277Z,32.00
2018-01-30T22:36:29.876Z,27.00
2018-01-30T22:38:06.330Z,81.50
2018-01-30T22:39:42.818Z,46.50
2018-01-30T22:41:19.313Z,33.50
2018-01-30T22:42:57.295Z,32.75
2018-01-30T22:44:33.613Z,29.50
2018-01-30T22:46:10.473Z,29.25
